KFCM/FCM METAR and TAF weather

Enter ICAO airport designator
Station Type Date Time Source
KFCM METAR 2023/01/30 09:53 UTC NOAA

KFCM 300953Z AUTO 30006KT 10SM CLR M21/M24 A3042 RMK AO2 SLP326 T12061244


Station Type Date Time Source
KFCM Decoded METAR 2023/01/30 09:53 UTC NOAA

Minneapolis, Flying Cloud Airport, MN, United States (KFCM) 44-49-56N 093-28-13W 280M
Jan 30, 2023 - 04:53 AM EST / 2023.01.30 0953 UTC
Wind: from the WNW (300 degrees) at 7 MPH (6 KT):0
Visibility: 10 mile(s):0
Sky conditions: clear
Temperature: -5.1 F (-20.6 C)
Windchill: -18 F (-28 C):2
Dew Point: -11.9 F (-24.4 C)
Relative Humidity: 71%
Pressure (altimeter): 30.42 in. Hg (1030 hPa)
ob: KFCM 300953Z AUTO 30006KT 10SM CLR M21/M24 A3042 RMK AO2 SLP326 T12061244
cycle: 10

Station Type Date Time Source
KFCM TAF 2018/02/05 20:59 UTC NOAA

TAF
AMD KFCM 051959Z 0520/0618 27007KT 6SM -SHSN BKN020 OVC050
TEMPO 0520/0522 SCT020 BKN050
FM052200 27007KT P6SM FEW020 BKN100
FM060100 31007KT P6SM FEW200
FM061000 VRB03KT P6SM FEW250
AMD NOT SKED

Example: see airport list